createdAt,value
2023-05-11T00:01:04.914Z,14.10
2023-05-11T00:03:33.212Z,15.30
2023-05-11T00:06:03.101Z,14.30
2023-05-11T00:08:31.136Z,15.93
2023-05-11T00:11:00.787Z,15.30
2023-05-11T00:13:29.024Z,13.80
2023-05-11T00:15:57.148Z,13.50
2023-05-11T00:18:25.232Z,14.07
2023-05-11T00:20:53.237Z,12.73
2023-05-11T00:23:22.595Z,13.80
2023-05-11T00:25:50.579Z,13.20
2023-05-11T00:28:18.596Z,14.83
2023-05-11T00:30:46.559Z,13.97
2023-05-11T00:33:14.693Z,12.73
2023-05-11T00:35:42.877Z,16.60
2023-05-11T00:38:11.332Z,12.50
2023-05-11T00:40:40.907Z,14.37
2023-05-11T00:43:08.979Z,13.00
2023-05-11T00:45:37.380Z,13.87
2023-05-11T00:48:05.999Z,12.73
2023-05-11T00:50:34.121Z,15.10
2023-05-11T00:53:02.772Z,13.57
2023-05-11T00:55:31.500Z,11.00
2023-05-11T00:58:01.354Z,14.37
2023-05-11T01:00:29.406Z,14.60
2023-05-11T01:02:57.701Z,12.37
2023-05-11T01:05:31.261Z,11.13
2023-05-11T01:08:06.551Z,11.70
2023-05-11T01:10:40.814Z,14.03
2023-05-11T01:13:14.943Z,15.00
2023-05-11T01:15:47.878Z,12.90
2023-05-11T01:18:24.994Z,12.33
2023-05-11T01:20:57.744Z,11.60
2023-05-11T01:24:01.279Z,11.03
2023-05-11T01:26:46.409Z,13.47
2023-05-11T01:29:53.102Z,11.83
2023-05-11T01:32:26.759Z,12.30
2023-05-11T01:35:11.930Z,13.20
2023-05-11T01:37:42.566Z,14.47
2023-05-11T01:40:16.515Z,9.77
2023-05-11T01:42:49.016Z,10.17
2023-05-11T01:45:18.263Z,9.33
2023-05-11T01:47:51.432Z,11.57
2023-05-11T01:50:21.869Z,10.23
2023-05-11T01:52:51.950Z,9.73
2023-05-11T01:55:23.716Z,11.63
2023-05-11T01:57:55.736Z,11.20
2023-05-11T02:00:24.787Z,9.17
2023-05-11T02:02:55.733Z,9.73
2023-05-11T02:05:25.111Z,10.77
2023-05-11T02:07:55.303Z,9.57
2023-05-11T02:10:26.407Z,11.73
2023-05-11T02:12:55.401Z,10.43
2023-05-11T02:15:24.976Z,11.50
2023-05-11T02:17:55.277Z,9.90
2023-05-11T02:20:25.019Z,12.60
2023-05-11T02:22:54.520Z,8.93
2023-05-11T02:25:23.767Z,9.77
2023-05-11T02:27:52.191Z,10.87
2023-05-11T02:30:20.431Z,10.97
2023-05-11T02:32:53.047Z,11.17
2023-05-11T02:35:26.525Z,8.17
2023-05-11T02:37:59.303Z,8.10
2023-05-11T02:40:31.588Z,9.80
2023-05-11T02:43:08.331Z,8.80
2023-05-11T02:45:38.053Z,8.10
2023-05-11T02:48:09.227Z,8.67
2023-05-11T02:50:40.873Z,10.00
2023-05-11T02:53:15.447Z,8.67
2023-05-11T02:55:43.851Z,7.03
2023-05-11T02:58:12.376Z,8.57
2023-05-11T03:00:40.583Z,8.80
2023-05-11T03:03:09.405Z,9.80
2023-05-11T03:05:39.007Z,7.57
2023-05-11T03:08:07.273Z,7.13
2023-05-11T03:10:35.388Z,8.47
2023-05-11T03:13:04.582Z,7.43
2023-05-11T03:15:33.370Z,7.93
2023-05-11T03:18:02.463Z,8.83
2023-05-11T03:20:31.962Z,7.63
2023-05-11T03:23:02.488Z,8.30
2023-05-11T03:25:31.269Z,5.53
2023-05-11T03:28:00.809Z,5.60
2023-05-11T03:30:30.222Z,6.80
2023-05-11T03:32:58.641Z,6.90
2023-05-11T03:35:29.316Z,5.50
2023-05-11T03:37:58.526Z,6.30
2023-05-11T03:40:30.074Z,6.10
2023-05-11T03:43:00.127Z,9.47
2023-05-11T03:45:29.931Z,6.60
2023-05-11T03:47:58.703Z,5.37
2023-05-11T03:50:28.034Z,5.90
2023-05-11T03:52:57.112Z,6.53
2023-05-11T03:55:25.137Z,6.50
2023-05-11T03:57:54.691Z,6.17
2023-05-11T04:00:23.694Z,8.57
2023-05-11T04:02:52.085Z,6.07
2023-05-11T04:05:20.288Z,5.50
2023-05-11T04:07:48.364Z,4.80
2023-05-11T04:10:16.522Z,7.00
2023-05-11T04:12:44.683Z,4.37
2023-05-11T04:15:14.156Z,5.90
2023-05-11T04:17:42.438Z,5.43
2023-05-11T04:20:11.019Z,6.60
2023-05-11T04:22:39.285Z,5.27
2023-05-11T04:25:08.006Z,5.30
2023-05-11T04:27:36.429Z,6.20
2023-05-11T04:30:04.560Z,5.63
2023-05-11T04:32:33.960Z,7.47
2023-05-11T04:35:02.024Z,6.03
2023-05-11T04:37:30.025Z,7.07
2023-05-11T04:39:58.277Z,4.87
2023-05-11T04:42:26.265Z,6.50
2023-05-11T04:44:55.302Z,5.17
2023-05-11T04:47:23.301Z,4.83
2023-05-11T04:49:52.656Z,4.53
2023-05-11T04:52:20.870Z,5.37
2023-05-11T04:54:48.860Z,6.87
2023-05-11T04:57:16.848Z,6.20
2023-05-11T04:59:44.976Z,6.40
2023-05-11T05:02:13.149Z,4.93
2023-05-11T05:04:41.124Z,6.20
2023-05-11T05:07:10.599Z,7.47
2023-05-11T05:09:38.626Z,5.13
2023-05-11T05:12:07.005Z,5.70
2023-05-11T05:14:35.073Z,7.63
2023-05-11T05:17:03.118Z,7.33
2023-05-11T05:19:31.778Z,5.83
2023-05-11T05:21:59.893Z,7.40
2023-05-11T05:24:29.271Z,5.50
2023-05-11T05:26:57.314Z,10.50
2023-05-11T05:29:25.395Z,5.57
2023-05-11T05:31:53.426Z,5.63
2023-05-11T05:34:21.433Z,5.17
2023-05-11T05:36:49.397Z,4.37
2023-05-11T05:39:17.375Z,4.53
2023-05-11T05:41:46.760Z,4.57
2023-05-11T05:44:14.755Z,5.07
2023-05-11T05:46:42.798Z,8.20
2023-05-11T05:49:10.850Z,4.20
2023-05-11T05:51:38.947Z,6.20
2023-05-11T05:54:07.057Z,5.60
2023-05-11T05:56:35.206Z,7.30
2023-05-11T05:59:04.649Z,4.13
2023-05-11T06:01:32.640Z,5.57
2023-05-11T06:04:00.969Z,6.47
2023-05-11T06:06:29.080Z,3.97
2023-05-11T06:08:57.556Z,6.90
2023-05-11T06:11:25.678Z,6.23
2023-05-11T06:14:00.334Z,3.60
2023-05-11T06:16:30.262Z,3.60
2023-05-11T06:18:58.363Z,5.73
2023-05-11T06:21:26.788Z,6.23
2023-05-11T06:23:59.350Z,4.50
2023-05-11T06:26:28.578Z,5.13
2023-05-11T06:28:56.556Z,4.40
2023-05-11T06:31:24.726Z,5.03
2023-05-11T06:33:59.542Z,5.53
2023-05-11T06:36:27.848Z,5.67
2023-05-11T06:38:55.875Z,5.07
2023-05-11T06:41:24.592Z,4.27
2023-05-11T06:44:01.018Z,4.23
2023-05-11T06:46:29.329Z,4.23
2023-05-11T06:48:59.001Z,3.50
2023-05-11T06:51:26.989Z,5.17
2023-05-11T06:53:55.020Z,5.13
2023-05-11T06:56:22.994Z,5.63
2023-05-11T06:58:51.019Z,4.47
2023-05-11T07:01:19.034Z,5.13
2023-05-11T07:03:48.850Z,5.05
2023-05-11T07:06:18.577Z,3.60
2023-05-11T07:08:46.566Z,3.47
2023-05-11T07:11:15.467Z,7.32
2023-05-11T07:13:43.470Z,3.30
2023-05-11T07:16:11.491Z,5.28
2023-05-11T07:18:39.530Z,3.85
2023-05-11T07:21:07.733Z,4.18
2023-05-11T07:23:37.102Z,3.50
2023-05-11T07:26:09.421Z,6.88
2023-05-11T07:28:37.554Z,3.15
2023-05-11T07:31:07.024Z,3.05
2023-05-11T07:33:35.568Z,3.63
2023-05-11T07:36:03.574Z,3.33
2023-05-11T07:38:31.570Z,3.25
2023-05-11T07:41:01.060Z,3.45
2023-05-11T07:43:29.212Z,2.25
2023-05-11T07:45:57.420Z,2.47
2023-05-11T07:48:25.545Z,2.53
2023-05-11T07:50:53.556Z,2.45
2023-05-11T07:53:21.560Z,4.43
2023-05-11T07:55:49.752Z,4.28
2023-05-11T07:58:19.208Z,4.03
2023-05-11T08:00:47.212Z,3.42
2023-05-11T08:03:15.823Z,3.08
2023-05-11T08:05:43.966Z,3.35
2023-05-11T08:08:12.015Z,2.70
2023-05-11T08:10:40.101Z,2.05
2023-05-11T08:13:08.176Z,4.18
2023-05-11T08:15:37.796Z,3.90
2023-05-11T08:18:06.797Z,3.83
2023-05-11T08:20:34.874Z,2.67
2023-05-11T08:23:03.112Z,3.47
2023-05-11T08:25:31.112Z,4.95
2023-05-11T08:27:59.145Z,2.33
2023-05-11T08:30:27.123Z,4.80
2023-05-11T08:32:59.089Z,3.45
2023-05-11T08:35:27.667Z,2.55
2023-05-11T08:37:55.639Z,4.20
2023-05-11T08:40:27.653Z,4.00
2023-05-11T08:42:57.144Z,3.53
2023-05-11T08:45:26.826Z,3.72
2023-05-11T08:47:56.751Z,2.72
2023-05-11T08:50:25.374Z,3.80
2023-05-11T08:52:53.408Z,3.63
2023-05-11T08:55:23.346Z,4.80
2023-05-11T08:57:54.389Z,2.95
2023-05-11T09:00:23.492Z,3.42
2023-05-11T09:02:52.883Z,3.40
2023-05-11T09:05:23.122Z,5.15
2023-05-11T09:07:54.198Z,3.13
2023-05-11T09:10:22.372Z,5.45
2023-05-11T09:12:50.553Z,5.72
2023-05-11T09:15:18.798Z,5.93
2023-05-11T09:17:47.042Z,3.55
2023-05-11T09:20:15.100Z,3.20
2023-05-11T09:22:46.000Z,2.35
2023-05-11T09:25:15.023Z,2.20
2023-05-11T09:27:43.596Z,2.15
2023-05-11T09:30:13.716Z,3.63
2023-05-11T09:32:50.057Z,2.00
2023-05-11T09:35:22.776Z,3.20
2023-05-11T09:38:06.376Z,5.38
2023-05-11T09:40:36.608Z,5.68
2023-05-11T09:43:05.102Z,2.22
2023-05-11T09:45:37.479Z,4.25
2023-05-11T09:48:06.404Z,1.90
2023-05-11T09:50:35.619Z,2.38
2023-05-11T09:53:05.038Z,3.72
2023-05-11T09:55:33.172Z,5.32
2023-05-11T09:58:02.334Z,3.55
2023-05-11T10:00:30.691Z,3.67
2023-05-11T10:03:03.062Z,3.05
2023-05-11T10:05:32.451Z,4.45
2023-05-11T10:08:01.602Z,2.75
2023-05-11T10:10:32.971Z,2.67
2023-05-11T10:13:02.580Z,3.80
2023-05-11T10:15:31.953Z,1.33
2023-05-11T10:18:01.335Z,2.20
2023-05-11T10:20:29.609Z,1.73
2023-05-11T10:22:57.744Z,5.18
2023-05-11T10:25:27.402Z,1.77
2023-05-11T10:27:58.254Z,2.20
2023-05-11T10:30:26.595Z,3.30
2023-05-11T10:32:56.627Z,2.38
2023-05-11T10:35:30.868Z,1.80
2023-05-11T10:37:59.417Z,2.13
2023-05-11T10:40:27.576Z,1.85
2023-05-11T10:43:24.983Z,3.15
2023-05-11T10:45:57.737Z,1.42
2023-05-11T10:49:07.266Z,1.67
2023-05-11T10:51:55.624Z,1.48
2023-05-11T10:54:35.293Z,2.80
2023-05-11T10:57:22.870Z,3.05
2023-05-11T11:00:31.267Z,4.78
2023-05-11T11:02:59.632Z,4.50
2023-05-11T11:05:38.149Z,2.85
2023-05-11T11:08:08.999Z,6.55
2023-05-11T11:10:38.933Z,2.95
2023-05-11T11:13:09.190Z,2.67
2023-05-11T11:16:16.756Z,4.28
2023-05-11T11:18:45.019Z,4.53
2023-05-11T11:21:15.849Z,2.15
2023-05-11T11:23:50.116Z,2.35
2023-05-11T11:26:39.492Z,1.58
2023-05-11T11:29:12.211Z,3.15
2023-05-11T11:31:42.597Z,3.97
2023-05-11T11:34:39.287Z,1.83
2023-05-11T11:37:09.789Z,3.05
2023-05-11T11:39:56.902Z,3.20
2023-05-11T11:42:37.777Z,2.72
2023-05-11T11:45:31.553Z,1.52
2023-05-11T11:48:15.569Z,2.65
2023-05-11T11:50:45.979Z,2.97
2023-05-11T11:53:35.078Z,1.85
2023-05-11T11:56:03.188Z,5.28
2023-05-11T11:58:59.631Z,1.80
2023-05-11T12:01:29.876Z,3.50
2023-05-11T12:04:47.652Z,4.47
2023-05-11T12:07:17.042Z,3.33
2023-05-11T12:09:47.538Z,6.43
2023-05-11T12:12:19.970Z,5.53
2023-05-11T12:14:49.878Z,2.28
2023-05-11T12:17:25.580Z,4.90
2023-05-11T12:19:55.822Z,1.30
2023-05-11T12:22:24.674Z,2.17
2023-05-11T12:24:57.248Z,1.73
2023-05-11T12:27:26.856Z,2.70
2023-05-11T12:29:54.840Z,1.45
2023-05-11T12:32:30.520Z,2.45
2023-05-11T12:35:01.149Z,2.33
2023-05-11T12:37:29.804Z,3.60
2023-05-11T12:39:58.574Z,3.25
2023-05-11T12:42:27.475Z,2.00
2023-05-11T12:44:56.950Z,2.53
2023-05-11T12:47:25.168Z,3.00
2023-05-11T12:49:53.426Z,3.25
2023-05-11T12:52:24.913Z,1.85
2023-05-11T12:54:53.890Z,3.88
2023-05-11T12:57:27.220Z,2.35
2023-05-11T13:00:10.937Z,2.78
2023-05-11T13:02:46.208Z,2.15
2023-05-11T13:05:15.099Z,4.40
2023-05-11T13:07:45.147Z,3.30
2023-05-11T13:10:14.074Z,1.98
2023-05-11T13:12:52.344Z,3.70
2023-05-11T13:15:21.924Z,1.65
2023-05-11T13:17:58.108Z,2.80
2023-05-11T13:20:29.604Z,2.53
2023-05-11T13:23:09.932Z,3.15
2023-05-11T13:25:54.295Z,2.83
2023-05-11T13:28:25.717Z,3.22
2023-05-11T13:31:00.866Z,2.13
2023-05-11T13:33:29.283Z,1.80
2023-05-11T13:35:57.371Z,3.60
2023-05-11T13:38:26.731Z,2.05
2023-05-11T13:40:54.994Z,3.03
2023-05-11T13:43:22.987Z,1.88
2023-05-11T13:45:51.288Z,3.47
2023-05-11T13:48:19.312Z,4.20
2023-05-11T13:50:47.323Z,1.17
2023-05-11T13:53:15.311Z,1.83
2023-05-11T13:55:44.795Z,3.83
2023-05-11T13:58:12.785Z,1.40
2023-05-11T14:00:41.099Z,1.95
2023-05-11T14:03:09.245Z,2.42
2023-05-11T14:05:39.264Z,1.77
2023-05-11T14:08:12.241Z,2.88
2023-05-11T14:10:40.274Z,1.65
2023-05-11T14:13:09.700Z,2.30
2023-05-11T14:15:38.450Z,6.22
2023-05-11T14:18:08.114Z,2.55
2023-05-11T14:20:38.607Z,1.75
2023-05-11T14:23:07.310Z,2.15
2023-05-11T14:25:36.217Z,2.45
2023-05-11T14:28:04.386Z,1.35
2023-05-11T14:30:34.066Z,1.65
2023-05-11T14:33:02.187Z,1.67
2023-05-11T14:35:30.250Z,1.52
2023-05-11T14:37:58.524Z,2.92
2023-05-11T14:40:26.503Z,1.75
2023-05-11T14:42:54.577Z,2.63
2023-05-11T14:45:22.667Z,2.95
2023-05-11T14:47:52.141Z,1.73
2023-05-11T14:50:20.264Z,1.65
2023-05-11T14:52:48.256Z,2.92
2023-05-11T14:55:16.472Z,2.65
2023-05-11T14:57:44.721Z,1.60
2023-05-11T15:00:13.876Z,2.13
2023-05-11T15:02:42.015Z,1.63
2023-05-11T15:05:11.629Z,3.13
2023-05-11T15:07:39.671Z,2.72
2023-05-11T15:10:09.422Z,1.20
2023-05-11T15:12:37.471Z,2.15
2023-05-11T15:15:06.351Z,4.05
2023-05-11T15:17:34.400Z,1.33
2023-05-11T15:20:02.921Z,2.60
2023-05-11T15:22:32.605Z,1.58
2023-05-11T15:25:00.590Z,1.92
2023-05-11T15:27:28.694Z,2.90
2023-05-11T15:29:56.705Z,1.50
2023-05-11T15:32:24.754Z,1.40
2023-05-11T15:34:59.373Z,1.67
2023-05-11T15:37:28.740Z,3.22
2023-05-11T15:39:58.271Z,3.88
2023-05-11T15:42:26.502Z,2.28
2023-05-11T15:44:54.469Z,2.67
2023-05-11T15:47:22.565Z,2.78
2023-05-11T15:49:50.735Z,2.13
2023-05-11T15:52:18.705Z,3.38
2023-05-11T15:54:46.711Z,1.65
2023-05-11T15:57:16.240Z,1.73
2023-05-11T15:59:44.248Z,2.00
2023-05-11T16:02:12.452Z,3.67
2023-05-11T16:04:40.450Z,1.67
2023-05-11T16:07:08.474Z,2.13
2023-05-11T16:09:36.477Z,1.73
2023-05-11T16:12:04.699Z,2.85
2023-05-11T16:14:34.196Z,3.67
2023-05-11T16:17:02.807Z,5.95
2023-05-11T16:19:33.420Z,1.50
2023-05-11T16:22:01.447Z,4.72
2023-05-11T16:24:32.120Z,1.45
2023-05-11T16:27:01.508Z,2.15
2023-05-11T16:29:29.575Z,1.77
2023-05-11T16:31:58.956Z,1.70
2023-05-11T16:34:27.301Z,2.60
2023-05-11T16:36:57.193Z,1.75
2023-05-11T16:39:26.719Z,4.00
2023-05-11T16:41:54.703Z,2.15
2023-05-11T16:44:22.694Z,6.40
2023-05-11T16:46:50.750Z,1.63
2023-05-11T16:49:20.159Z,4.30
2023-05-11T16:51:48.251Z,2.03
2023-05-11T16:54:16.390Z,2.55
2023-05-11T16:56:44.430Z,1.67
2023-05-11T16:59:12.556Z,5.38
2023-05-11T17:01:40.609Z,2.08
2023-05-11T17:04:08.827Z,4.20
2023-05-11T17:06:38.294Z,2.85
2023-05-11T17:09:06.293Z,1.85
2023-05-11T17:11:34.333Z,1.92
2023-05-11T17:14:02.796Z,2.17
2023-05-11T17:16:30.834Z,2.67
2023-05-11T17:18:59.259Z,1.55
2023-05-11T17:21:28.608Z,2.13
2023-05-11T17:23:58.144Z,3.20
2023-05-11T17:26:35.407Z,4.85
2023-05-11T17:29:11.971Z,1.95
2023-05-11T17:31:40.097Z,1.73
2023-05-11T17:34:09.071Z,3.45
2023-05-11T17:36:37.280Z,4.18
2023-05-11T17:39:06.707Z,2.92
2023-05-11T17:41:34.717Z,3.70
2023-05-11T17:44:02.805Z,3.97
2023-05-11T17:46:30.874Z,3.67
2023-05-11T17:48:58.910Z,2.75
2023-05-11T17:51:26.974Z,4.13
2023-05-11T17:53:56.061Z,2.33
2023-05-11T17:56:25.492Z,3.95
2023-05-11T17:58:53.538Z,3.90
2023-05-11T18:01:22.725Z,4.53
2023-05-11T18:03:50.884Z,4.28
2023-05-11T18:06:18.967Z,2.65
2023-05-11T18:08:47.043Z,2.83
2023-05-11T18:11:15.083Z,2.75
2023-05-11T18:13:44.423Z,3.03
2023-05-11T18:16:12.463Z,2.75
2023-05-11T18:18:42.288Z,4.80
2023-05-11T18:21:11.367Z,7.97
2023-05-11T18:23:39.663Z,2.83
2023-05-11T18:26:08.244Z,2.90
2023-05-11T18:28:36.250Z,2.03
2023-05-11T18:31:05.741Z,3.08
2023-05-11T18:33:33.805Z,4.57
2023-05-11T18:36:03.650Z,4.60
2023-05-11T18:38:32.331Z,4.72
2023-05-11T18:41:05.591Z,1.88
2023-05-11T18:43:34.301Z,2.40
2023-05-11T18:46:02.304Z,4.55
2023-05-11T18:48:31.663Z,2.10
2023-05-11T18:50:59.650Z,3.33
2023-05-11T18:53:27.815Z,2.20
2023-05-11T18:55:56.087Z,6.03
2023-05-11T18:58:24.362Z,2.15
2023-05-11T19:00:52.982Z,6.05
2023-05-11T19:03:22.076Z,2.00
2023-05-11T19:05:52.212Z,1.88
2023-05-11T19:08:20.237Z,2.80
2023-05-11T19:10:49.460Z,3.13
2023-05-11T19:13:17.518Z,1.60
2023-05-11T19:15:45.546Z,4.07
2023-05-11T19:18:13.636Z,2.47
2023-05-11T19:20:41.756Z,2.47
2023-05-11T19:23:11.180Z,2.97
2023-05-11T19:25:39.282Z,2.97
2023-05-11T19:28:07.351Z,4.28
2023-05-11T19:30:35.321Z,4.88
2023-05-11T19:33:03.392Z,3.92
2023-05-11T19:35:31.801Z,1.88
2023-05-11T19:37:59.849Z,4.20
2023-05-11T19:43:00.986Z,3.13
2023-05-11T19:45:31.411Z,5.10
2023-05-11T19:47:59.844Z,4.18
2023-05-11T19:50:27.936Z,3.35
2023-05-11T19:52:56.600Z,3.90
2023-05-11T19:55:24.630Z,4.95
2023-05-11T19:57:54.031Z,4.95
2023-05-11T20:00:25.026Z,6.15
2023-05-11T20:02:53.178Z,3.53
2023-05-11T20:05:21.668Z,4.88
2023-05-11T20:07:49.875Z,3.05
2023-05-11T20:10:18.219Z,3.27
2023-05-11T20:12:46.601Z,4.22
2023-05-11T20:15:15.997Z,2.33
2023-05-11T20:17:44.219Z,3.47
2023-05-11T20:20:13.141Z,3.90
2023-05-11T20:22:41.149Z,3.17
2023-05-11T20:25:16.995Z,3.33
2023-05-11T20:27:46.332Z,2.47
2023-05-11T20:30:16.265Z,4.88
2023-05-11T20:35:15.946Z,2.33
2023-05-11T20:37:44.271Z,4.30
2023-05-11T20:40:13.666Z,3.27
2023-05-11T20:42:41.832Z,2.50
2023-05-11T20:45:11.081Z,3.87
2023-05-11T20:47:40.520Z,2.07
2023-05-11T20:50:10.028Z,5.67
2023-05-11T20:52:38.404Z,6.13
2023-05-11T20:55:07.285Z,3.38
2023-05-11T20:57:35.347Z,4.40
2023-05-11T21:00:07.369Z,3.55
2023-05-11T21:02:36.079Z,2.55
2023-05-11T21:05:05.750Z,4.27
2023-05-11T21:07:33.788Z,3.38
2023-05-11T21:10:01.905Z,3.20
2023-05-11T21:12:29.969Z,3.53
2023-05-11T21:14:58.147Z,2.37
2023-05-11T21:17:26.291Z,3.77
2023-05-11T21:19:54.327Z,3.57
2023-05-11T21:22:23.776Z,4.47
2023-05-11T21:24:51.804Z,3.33
2023-05-11T21:27:19.806Z,5.05
2023-05-11T21:29:48.196Z,3.77
2023-05-11T21:32:16.356Z,2.67
2023-05-11T21:34:44.409Z,3.80
2023-05-11T21:37:14.640Z,3.43
2023-05-11T21:39:44.045Z,5.00
2023-05-11T21:42:12.043Z,5.03
2023-05-11T21:44:40.069Z,4.03
2023-05-11T21:47:08.246Z,5.13
2023-05-11T21:49:36.742Z,3.17
2023-05-11T21:52:05.861Z,2.93
2023-05-11T21:54:33.918Z,3.03
2023-05-11T21:57:03.715Z,4.97
2023-05-11T21:59:31.705Z,4.70
2023-05-11T22:01:59.803Z,4.63
2023-05-11T22:04:27.865Z,2.90
2023-05-11T22:06:59.668Z,2.30
2023-05-11T22:09:29.982Z,3.33
2023-05-11T22:11:58.202Z,2.50
2023-05-11T22:14:27.621Z,3.30
2023-05-11T22:16:55.618Z,4.20
2023-05-11T22:19:23.612Z,5.30
2023-05-11T22:21:51.668Z,7.10
2023-05-11T22:24:21.205Z,5.53
2023-05-11T22:26:49.211Z,4.27
2023-05-11T22:29:17.204Z,2.63
2023-05-11T22:31:46.613Z,3.53
2023-05-11T22:34:14.607Z,5.07
2023-05-11T22:36:42.625Z,5.67
2023-05-11T22:39:11.777Z,4.43
2023-05-11T22:41:39.824Z,3.90
2023-05-11T22:44:09.384Z,3.60
2023-05-11T22:46:37.422Z,4.97
2023-05-11T22:49:06.778Z,6.03
2023-05-11T22:51:34.767Z,7.87
2023-05-11T22:54:03.441Z,4.10
2023-05-11T22:56:32.224Z,3.90
2023-05-11T22:59:00.319Z,5.43
2023-05-11T23:02:15.238Z,2.97
2023-05-11T23:04:44.762Z,4.33
2023-05-11T23:07:12.945Z,4.40
2023-05-11T23:09:41.082Z,5.13
2023-05-11T23:12:09.686Z,5.13
2023-05-11T23:14:37.709Z,6.83
2023-05-11T23:17:05.755Z,4.17
2023-05-11T23:19:33.848Z,4.17
2023-05-11T23:22:03.298Z,4.50
2023-05-11T23:24:31.360Z,5.23
2023-05-11T23:26:59.405Z,6.20
2023-05-11T23:29:27.976Z,6.27
2023-05-11T23:31:56.900Z,5.07
2023-05-11T23:34:24.959Z,6.87
2023-05-11T23:36:52.977Z,7.10
2023-05-11T23:39:22.375Z,6.37
2023-05-11T23:41:50.422Z,6.70
2023-05-11T23:44:18.667Z,7.37
2023-05-11T23:46:46.887Z,6.60
2023-05-11T23:49:14.961Z,6.93
2023-05-11T23:51:43.002Z,13.03
2023-05-11T23:54:11.493Z,5.27
2023-05-11T23:56:40.930Z,5.43
2023-05-11T23:59:08.904Z,4.83
